sensor_id;sensor_type;location;lat;lon;timestamp;P1;durP1;ratioP1;P2;durP2;ratioP2
75520;SDS011;64102;48.628;9.002;2022-11-14T00:02:17;3.90;;;0.67;;
75520;SDS011;64102;48.628;9.002;2022-11-14T00:04:46;4.20;;;0.68;;
75520;SDS011;64102;48.628;9.002;2022-11-14T00:07:12;7.65;;;0.90;;
75520;SDS011;64102;48.628;9.002;2022-11-14T00:09:38;2.70;;;0.60;;
75520;SDS011;64102;48.628;9.002;2022-11-14T00:12:06;5.25;;;0.93;;
75520;SDS011;64102;48.628;9.002;2022-11-14T00:14:35;2.88;;;0.52;;
75520;SDS011;64102;48.628;9.002;2022-11-14T00:17:00;4.90;;;0.55;;
75520;SDS011;64102;48.628;9.002;2022-11-14T00:19:26;3.40;;;0.75;;
75520;SDS011;64102;48.628;9.002;2022-11-14T00:21:51;4.95;;;0.75;;
75520;SDS011;64102;48.628;9.002;2022-11-14T00:24:17;6.18;;;0.73;;
75520;SDS011;64102;48.628;9.002;2022-11-14T00:26:43;3.95;;;0.80;;
75520;SDS011;64102;48.628;9.002;2022-11-14T00:29:12;8.43;;;1.10;;
75520;SDS011;64102;48.628;9.002;2022-11-14T00:31:38;3.83;;;0.57;;
75520;SDS011;64102;48.628;9.002;2022-11-14T00:34:04;4.45;;;0.98;;
75520;SDS011;64102;48.628;9.002;2022-11-14T00:36:30;2.47;;;0.43;;
75520;SDS011;64102;48.628;9.002;2022-11-14T00:38:55;5.15;;;0.43;;
75520;SDS011;64102;48.628;9.002;2022-11-14T00:41:21;4.43;;;0.97;;
75520;SDS011;64102;48.628;9.002;2022-11-14T00:43:46;2.25;;;0.38;;
75520;SDS011;64102;48.628;9.002;2022-11-14T00:46:11;2.97;;;0.30;;
75520;SDS011;64102;48.628;9.002;2022-11-14T00:48:37;3.47;;;0.75;;
75520;SDS011;64102;48.628;9.002;2022-11-14T00:51:02;5.72;;;1.20;;
75520;SDS011;64102;48.628;9.002;2022-11-14T00:53:28;4.75;;;0.85;;
75520;SDS011;64102;48.628;9.002;2022-11-14T00:55:53;4.03;;;0.63;;
75520;SDS011;64102;48.628;9.002;2022-11-14T00:58:19;4.80;;;0.60;;
75520;SDS011;64102;48.628;9.002;2022-11-14T01:00:44;4.73;;;0.93;;
75520;SDS011;64102;48.628;9.002;2022-11-14T01:03:09;5.63;;;0.95;;
75520;SDS011;64102;48.628;9.002;2022-11-14T01:05:45;5.43;;;0.90;;
75520;SDS011;64102;48.628;9.002;2022-11-14T01:10:39;3.75;;;1.02;;
75520;SDS011;64102;48.628;9.002;2022-11-14T01:13:05;3.53;;;0.60;;
75520;SDS011;64102;48.628;9.002;2022-11-14T01:15:31;2.83;;;0.63;;
75520;SDS011;64102;48.628;9.002;2022-11-14T01:17:56;5.07;;;0.20;;
75520;SDS011;64102;48.628;9.002;2022-11-14T01:20:21;5.82;;;1.05;;
75520;SDS011;64102;48.628;9.002;2022-11-14T01:22:47;6.93;;;1.03;;
75520;SDS011;64102;48.628;9.002;2022-11-14T01:25:12;3.97;;;0.30;;
75520;SDS011;64102;48.628;9.002;2022-11-14T01:27:37;3.38;;;0.70;;
75520;SDS011;64102;48.628;9.002;2022-11-14T01:30:03;3.43;;;1.00;;
75520;SDS011;64102;48.628;9.002;2022-11-14T01:32:28;4.05;;;0.98;;
75520;SDS011;64102;48.628;9.002;2022-11-14T01:34:54;5.50;;;0.77;;
75520;SDS011;64102;48.628;9.002;2022-11-14T01:37:19;3.40;;;0.53;;
75520;SDS011;64102;48.628;9.002;2022-11-14T01:39:45;6.80;;;0.80;;
75520;SDS011;64102;48.628;9.002;2022-11-14T01:42:10;4.60;;;0.83;;
75520;SDS011;64102;48.628;9.002;2022-11-14T01:44:46;5.47;;;0.83;;
75520;SDS011;64102;48.628;9.002;2022-11-14T01:47:15;4.22;;;1.17;;
75520;SDS011;64102;48.628;9.002;2022-11-14T01:49:47;2.92;;;0.35;;
75520;SDS011;64102;48.628;9.002;2022-11-14T01:52:17;1.95;;;0.17;;
75520;SDS011;64102;48.628;9.002;2022-11-14T01:54:56;4.30;;;0.63;;
75520;SDS011;64102;48.628;9.002;2022-11-14T01:57:35;5.03;;;1.08;;
75520;SDS011;64102;48.628;9.002;2022-11-14T02:00:06;2.83;;;0.45;;
75520;SDS011;64102;48.628;9.002;2022-11-14T02:02:34;3.50;;;1.17;;
75520;SDS011;64102;48.628;9.002;2022-11-14T02:05:10;5.18;;;0.65;;
75520;SDS011;64102;48.628;9.002;2022-11-14T02:07:39;2.22;;;0.40;;
75520;SDS011;64102;48.628;9.002;2022-11-14T02:10:07;2.90;;;0.40;;
75520;SDS011;64102;48.628;9.002;2022-11-14T02:12:35;2.65;;;0.50;;
75520;SDS011;64102;48.628;9.002;2022-11-14T02:15:02;2.45;;;0.28;;
75520;SDS011;64102;48.628;9.002;2022-11-14T02:17:28;2.92;;;0.57;;
75520;SDS011;64102;48.628;9.002;2022-11-14T02:19:55;3.58;;;0.32;;
75520;SDS011;64102;48.628;9.002;2022-11-14T02:22:36;3.40;;;0.82;;
75520;SDS011;64102;48.628;9.002;2022-11-14T02:25:06;5.20;;;1.08;;
75520;SDS011;64102;48.628;9.002;2022-11-14T02:27:32;2.25;;;0.50;;
75520;SDS011;64102;48.628;9.002;2022-11-14T02:30:03;2.65;;;0.63;;
75520;SDS011;64102;48.628;9.002;2022-11-14T02:32:30;2.63;;;0.70;;
75520;SDS011;64102;48.628;9.002;2022-11-14T02:34:56;4.80;;;0.20;;
75520;SDS011;64102;48.628;9.002;2022-11-14T02:37:21;1.40;;;0.40;;
75520;SDS011;64102;48.628;9.002;2022-11-14T02:39:46;5.10;;;0.40;;
75520;SDS011;64102;48.628;9.002;2022-11-14T02:42:12;3.15;;;0.75;;
75520;SDS011;64102;48.628;9.002;2022-11-14T02:44:37;1.60;;;0.13;;
75520;SDS011;64102;48.628;9.002;2022-11-14T02:47:03;1.95;;;0.45;;
75520;SDS011;64102;48.628;9.002;2022-11-14T02:49:28;1.55;;;0.10;;
75520;SDS011;64102;48.628;9.002;2022-11-14T02:51:53;2.73;;;0.63;;
75520;SDS011;64102;48.628;9.002;2022-11-14T02:54:19;2.53;;;0.30;;
75520;SDS011;64102;48.628;9.002;2022-11-14T02:56:44;1.80;;;0.47;;
75520;SDS011;64102;48.628;9.002;2022-11-14T02:59:09;2.43;;;0.60;;
75520;SDS011;64102;48.628;9.002;2022-11-14T03:01:35;1.50;;;0.30;;
75520;SDS011;64102;48.628;9.002;2022-11-14T03:04:00;4.38;;;0.20;;
75520;SDS011;64102;48.628;9.002;2022-11-14T03:06:25;1.80;;;0.37;;
75520;SDS011;64102;48.628;9.002;2022-11-14T03:08:51;1.73;;;0.40;;
75520;SDS011;64102;48.628;9.002;2022-11-14T03:11:16;4.13;;;0.60;;
75520;SDS011;64102;48.628;9.002;2022-11-14T03:13:41;4.57;;;0.30;;
75520;SDS011;64102;48.628;9.002;2022-11-14T03:16:07;2.47;;;0.40;;
75520;SDS011;64102;48.628;9.002;2022-11-14T03:18:34;3.53;;;0.50;;
75520;SDS011;64102;48.628;9.002;2022-11-14T03:21:04;2.78;;;0.45;;
75520;SDS011;64102;48.628;9.002;2022-11-14T03:23:34;2.33;;;0.52;;
75520;SDS011;64102;48.628;9.002;2022-11-14T03:26:00;2.83;;;0.28;;
75520;SDS011;64102;48.628;9.002;2022-11-14T03:28:26;2.60;;;0.30;;
75520;SDS011;64102;48.628;9.002;2022-11-14T03:30:52;1.27;;;0.15;;
75520;SDS011;64102;48.628;9.002;2022-11-14T03:33:17;4.60;;;0.40;;
75520;SDS011;64102;48.628;9.002;2022-11-14T03:35:42;2.80;;;0.53;;
75520;SDS011;64102;48.628;9.002;2022-11-14T03:38:08;2.15;;;0.35;;
75520;SDS011;64102;48.628;9.002;2022-11-14T03:40:33;2.63;;;0.33;;
75520;SDS011;64102;48.628;9.002;2022-11-14T03:42:59;1.88;;;0.13;;
75520;SDS011;64102;48.628;9.002;2022-11-14T03:45:24;3.20;;;0.40;;
75520;SDS011;64102;48.628;9.002;2022-11-14T03:47:49;3.03;;;0.40;;
75520;SDS011;64102;48.628;9.002;2022-11-14T03:50:15;1.40;;;0.27;;
75520;SDS011;64102;48.628;9.002;2022-11-14T03:52:40;2.03;;;0.40;;
75520;SDS011;64102;48.628;9.002;2022-11-14T03:55:06;2.20;;;0.20;;
75520;SDS011;64102;48.628;9.002;2022-11-14T03:57:31;1.85;;;0.38;;
75520;SDS011;64102;48.628;9.002;2022-11-14T03:59:57;3.77;;;0.60;;
75520;SDS011;64102;48.628;9.002;2022-11-14T04:02:22;1.47;;;0.63;;
75520;SDS011;64102;48.628;9.002;2022-11-14T04:04:47;2.00;;;0.03;;
75520;SDS011;64102;48.628;9.002;2022-11-14T04:07:13;1.13;;;0.28;;
75520;SDS011;64102;48.628;9.002;2022-11-14T04:09:38;3.53;;;0.20;;
75520;SDS011;64102;48.628;9.002;2022-11-14T04:12:03;2.00;;;0.40;;
75520;SDS011;64102;48.628;9.002;2022-11-14T04:14:29;1.10;;;0.25;;
75520;SDS011;64102;48.628;9.002;2022-11-14T04:16:54;1.47;;;0.20;;
75520;SDS011;64102;48.628;9.002;2022-11-14T04:19:19;1.13;;;0.20;;
75520;SDS011;64102;48.628;9.002;2022-11-14T04:21:45;4.90;;;0.53;;
75520;SDS011;64102;48.628;9.002;2022-11-14T04:24:10;2.77;;;0.63;;
75520;SDS011;64102;48.628;9.002;2022-11-14T04:26:35;1.70;;;0.30;;
75520;SDS011;64102;48.628;9.002;2022-11-14T04:29:01;1.37;;;0.27;;
75520;SDS011;64102;48.628;9.002;2022-11-14T04:31:26;3.60;;;0.25;;
75520;SDS011;64102;48.628;9.002;2022-11-14T04:33:52;2.93;;;0.20;;
75520;SDS011;64102;48.628;9.002;2022-11-14T04:36:17;1.23;;;0.22;;
75520;SDS011;64102;48.628;9.002;2022-11-14T04:38:42;2.07;;;0.30;;
75520;SDS011;64102;48.628;9.002;2022-11-14T04:41:08;1.90;;;0.10;;
75520;SDS011;64102;48.628;9.002;2022-11-14T04:43:33;1.07;;;0.30;;
75520;SDS011;64102;48.628;9.002;2022-11-14T04:45:58;2.87;;;0.40;;
75520;SDS011;64102;48.628;9.002;2022-11-14T04:48:24;3.93;;;0.30;;
75520;SDS011;64102;48.628;9.002;2022-11-14T04:50:49;1.45;;;0.35;;
75520;SDS011;64102;48.628;9.002;2022-11-14T04:53:14;5.73;;;0.83;;
75520;SDS011;64102;48.628;9.002;2022-11-14T04:55:40;3.45;;;0.40;;
75520;SDS011;64102;48.628;9.002;2022-11-14T04:58:05;1.73;;;0.23;;
75520;SDS011;64102;48.628;9.002;2022-11-14T05:00:30;0.87;;;0.07;;
75520;SDS011;64102;48.628;9.002;2022-11-14T05:02:57;1.98;;;0.10;;
75520;SDS011;64102;48.628;9.002;2022-11-14T05:05:23;2.80;;;0.50;;
75520;SDS011;64102;48.628;9.002;2022-11-14T05:07:50;1.50;;;0.17;;
75520;SDS011;64102;48.628;9.002;2022-11-14T05:10:15;3.40;;;0.70;;
75520;SDS011;64102;48.628;9.002;2022-11-14T05:12:40;1.33;;;0.10;;
75520;SDS011;64102;48.628;9.002;2022-11-14T05:15:06;4.30;;;0.97;;
75520;SDS011;64102;48.628;9.002;2022-11-14T05:17:32;1.10;;;0.10;;
75520;SDS011;64102;48.628;9.002;2022-11-14T05:19:57;2.30;;;0.43;;
75520;SDS011;64102;48.628;9.002;2022-11-14T05:22:23;2.50;;;0.50;;
75520;SDS011;64102;48.628;9.002;2022-11-14T05:24:48;1.83;;;0.33;;
75520;SDS011;64102;48.628;9.002;2022-11-14T05:27:14;3.72;;;0.38;;
75520;SDS011;64102;48.628;9.002;2022-11-14T05:29:39;2.37;;;0.30;;
75520;SDS011;64102;48.628;9.002;2022-11-14T05:32:04;1.77;;;0.20;;
75520;SDS011;64102;48.628;9.002;2022-11-14T05:34:30;2.20;;;0.37;;
75520;SDS011;64102;48.628;9.002;2022-11-14T05:36:55;4.68;;;0.68;;
75520;SDS011;64102;48.628;9.002;2022-11-14T05:39:20;5.93;;;0.60;;
75520;SDS011;64102;48.628;9.002;2022-11-14T05:41:46;7.10;;;0.80;;
75520;SDS011;64102;48.628;9.002;2022-11-14T05:44:11;4.70;;;1.13;;
75520;SDS011;64102;48.628;9.002;2022-11-14T05:46:36;5.97;;;0.70;;
75520;SDS011;64102;48.628;9.002;2022-11-14T05:49:02;5.27;;;0.60;;
75520;SDS011;64102;48.628;9.002;2022-11-14T05:51:27;6.65;;;0.50;;
75520;SDS011;64102;48.628;9.002;2022-11-14T05:53:52;3.30;;;0.80;;
75520;SDS011;64102;48.628;9.002;2022-11-14T05:56:19;3.17;;;0.50;;
75520;SDS011;64102;48.628;9.002;2022-11-14T05:58:44;5.03;;;0.68;;
75520;SDS011;64102;48.628;9.002;2022-11-14T06:01:11;2.33;;;0.55;;
75520;SDS011;64102;48.628;9.002;2022-11-14T06:03:40;1.70;;;0.10;;
75520;SDS011;64102;48.628;9.002;2022-11-14T06:06:07;3.28;;;0.20;;
75520;SDS011;64102;48.628;9.002;2022-11-14T06:08:34;3.85;;;0.40;;
75520;SDS011;64102;48.628;9.002;2022-11-14T06:11:01;2.53;;;0.50;;
75520;SDS011;64102;48.628;9.002;2022-11-14T06:13:28;2.28;;;0.30;;
75520;SDS011;64102;48.628;9.002;2022-11-14T06:15:57;1.10;;;0.15;;
75520;SDS011;64102;48.628;9.002;2022-11-14T06:18:41;1.27;;;0.20;;
75520;SDS011;64102;48.628;9.002;2022-11-14T06:21:14;3.85;;;0.20;;
75520;SDS011;64102;48.628;9.002;2022-11-14T06:23:42;2.47;;;0.57;;
75520;SDS011;64102;48.628;9.002;2022-11-14T06:26:11;3.30;;;0.50;;
75520;SDS011;64102;48.628;9.002;2022-11-14T06:28:58;3.90;;;0.60;;
75520;SDS011;64102;48.628;9.002;2022-11-14T06:31:24;2.33;;;0.20;;
75520;SDS011;64102;48.628;9.002;2022-11-14T06:33:50;2.03;;;0.30;;
75520;SDS011;64102;48.628;9.002;2022-11-14T06:36:16;2.22;;;0.30;;
75520;SDS011;64102;48.628;9.002;2022-11-14T06:38:41;4.68;;;0.82;;
75520;SDS011;64102;48.628;9.002;2022-11-14T06:43:34;5.57;;;0.77;;
75520;SDS011;64102;48.628;9.002;2022-11-14T06:46:02;2.42;;;0.40;;
75520;SDS011;64102;48.628;9.002;2022-11-14T06:48:29;3.15;;;0.60;;
75520;SDS011;64102;48.628;9.002;2022-11-14T06:50:54;1.50;;;0.08;;
75520;SDS011;64102;48.628;9.002;2022-11-14T06:53:21;5.35;;;0.22;;
75520;SDS011;64102;48.628;9.002;2022-11-14T06:55:52;2.72;;;0.73;;
75520;SDS011;64102;48.628;9.002;2022-11-14T06:58:22;4.25;;;0.63;;
75520;SDS011;64102;48.628;9.002;2022-11-14T07:00:50;4.80;;;0.60;;
75520;SDS011;64102;48.628;9.002;2022-11-14T07:03:15;5.75;;;0.70;;
75520;SDS011;64102;48.628;9.002;2022-11-14T07:05:41;8.03;;;0.93;;
75520;SDS011;64102;48.628;9.002;2022-11-14T07:08:06;6.78;;;0.85;;
75520;SDS011;64102;48.628;9.002;2022-11-14T07:10:32;7.80;;;1.10;;
75520;SDS011;64102;48.628;9.002;2022-11-14T07:12:58;7.30;;;1.03;;
75520;SDS011;64102;48.628;9.002;2022-11-14T07:15:23;4.07;;;0.80;;
75520;SDS011;64102;48.628;9.002;2022-11-14T07:17:48;5.57;;;1.33;;
75520;SDS011;64102;48.628;9.002;2022-11-14T07:20:14;4.30;;;1.00;;
75520;SDS011;64102;48.628;9.002;2022-11-14T07:22:43;1.60;;;0.10;;
75520;SDS011;64102;48.628;9.002;2022-11-14T07:25:10;5.43;;;0.40;;
75520;SDS011;64102;48.628;9.002;2022-11-14T07:27:36;4.90;;;0.57;;
75520;SDS011;64102;48.628;9.002;2022-11-14T07:30:01;3.37;;;0.70;;
75520;SDS011;64102;48.628;9.002;2022-11-14T07:32:26;5.30;;;0.43;;
75520;SDS011;64102;48.628;9.002;2022-11-14T07:34:52;5.37;;;0.67;;
75520;SDS011;64102;48.628;9.002;2022-11-14T07:37:17;5.40;;;0.40;;
75520;SDS011;64102;48.628;9.002;2022-11-14T07:39:42;4.17;;;0.67;;
75520;SDS011;64102;48.628;9.002;2022-11-14T07:42:08;3.33;;;0.13;;
75520;SDS011;64102;48.628;9.002;2022-11-14T07:44:33;4.60;;;0.40;;
75520;SDS011;64102;48.628;9.002;2022-11-14T07:46:58;5.32;;;0.75;;
75520;SDS011;64102;48.628;9.002;2022-11-14T07:49:24;5.57;;;0.60;;
75520;SDS011;64102;48.628;9.002;2022-11-14T07:51:49;6.43;;;0.40;;
75520;SDS011;64102;48.628;9.002;2022-11-14T07:54:14;6.22;;;0.52;;
75520;SDS011;64102;48.628;9.002;2022-11-14T07:56:40;3.90;;;0.30;;
75520;SDS011;64102;48.628;9.002;2022-11-14T07:59:05;4.63;;;0.37;;
75520;SDS011;64102;48.628;9.002;2022-11-14T08:01:30;5.53;;;0.30;;
75520;SDS011;64102;48.628;9.002;2022-11-14T08:03:56;3.60;;;0.32;;
75520;SDS011;64102;48.628;9.002;2022-11-14T08:06:21;6.47;;;0.87;;
75520;SDS011;64102;48.628;9.002;2022-11-14T08:08:46;3.40;;;0.33;;
75520;SDS011;64102;48.628;9.002;2022-11-14T08:11:12;3.57;;;0.30;;
75520;SDS011;64102;48.628;9.002;2022-11-14T08:13:37;4.80;;;0.55;;
75520;SDS011;64102;48.628;9.002;2022-11-14T08:16:07;5.53;;;0.43;;
75520;SDS011;64102;48.628;9.002;2022-11-14T08:18:34;5.40;;;0.35;;
75520;SDS011;64102;48.628;9.002;2022-11-14T08:21:15;4.93;;;0.45;;
75520;SDS011;64102;48.628;9.002;2022-11-14T08:23:40;3.53;;;0.20;;
75520;SDS011;64102;48.628;9.002;2022-11-14T08:26:05;1.20;;;0.10;;
75520;SDS011;64102;48.628;9.002;2022-11-14T08:28:31;2.03;;;0.13;;
75520;SDS011;64102;48.628;9.002;2022-11-14T08:30:59;2.13;;;0.10;;
75520;SDS011;64102;48.628;9.002;2022-11-14T08:33:26;0.30;;;0.00;;
75520;SDS011;64102;48.628;9.002;2022-11-14T08:35:51;2.47;;;0.20;;
75520;SDS011;64102;48.628;9.002;2022-11-14T08:38:16;1.93;;;0.17;;
75520;SDS011;64102;48.628;9.002;2022-11-14T08:40:42;1.53;;;0.10;;
75520;SDS011;64102;48.628;9.002;2022-11-14T08:43:07;4.47;;;0.20;;
75520;SDS011;64102;48.628;9.002;2022-11-14T08:45:33;0.65;;;0.03;;
75520;SDS011;64102;48.628;9.002;2022-11-14T08:47:59;0.70;;;0.10;;
75520;SDS011;64102;48.628;9.002;2022-11-14T08:50:24;0.47;;;0.00;;
75520;SDS011;64102;48.628;9.002;2022-11-14T08:52:50;1.92;;;0.20;;
75520;SDS011;64102;48.628;9.002;2022-11-14T08:55:16;0.50;;;0.00;;
75520;SDS011;64102;48.628;9.002;2022-11-14T08:57:42;0.52;;;0.00;;
75520;SDS011;64102;48.628;9.002;2022-11-14T09:00:07;0.07;;;0.00;;
75520;SDS011;64102;48.628;9.002;2022-11-14T09:02:33;1.67;;;0.17;;
75520;SDS011;64102;48.628;9.002;2022-11-14T09:04:58;0.20;;;0.00;;
75520;SDS011;64102;48.628;9.002;2022-11-14T09:07:24;1.13;;;0.00;;
75520;SDS011;64102;48.628;9.002;2022-11-14T09:09:49;0.47;;;0.00;;
75520;SDS011;64102;48.628;9.002;2022-11-14T09:12:15;1.07;;;0.07;;
75520;SDS011;64102;48.628;9.002;2022-11-14T09:14:41;1.23;;;0.00;;
75520;SDS011;64102;48.628;9.002;2022-11-14T09:17:06;0.10;;;0.00;;
75520;SDS011;64102;48.628;9.002;2022-11-14T09:19:32;0.77;;;0.00;;
75520;SDS011;64102;48.628;9.002;2022-11-14T09:21:57;1.30;;;0.00;;
75520;SDS011;64102;48.628;9.002;2022-11-14T09:24:22;1.80;;;0.10;;
75520;SDS011;64102;48.628;9.002;2022-11-14T09:26:49;0.33;;;0.00;;
75520;SDS011;64102;48.628;9.002;2022-11-14T09:29:16;0.13;;;0.00;;
75520;SDS011;64102;48.628;9.002;2022-11-14T09:31:43;0.32;;;0.00;;
75520;SDS011;64102;48.628;9.002;2022-11-14T09:34:08;0.95;;;0.00;;
75520;SDS011;64102;48.628;9.002;2022-11-14T09:36:34;0.88;;;0.00;;
75520;SDS011;64102;48.628;9.002;2022-11-14T09:38:59;0.10;;;0.00;;
75520;SDS011;64102;48.628;9.002;2022-11-14T09:41:38;0.52;;;0.00;;
75520;SDS011;64102;48.628;9.002;2022-11-14T09:47:01;0.75;;;0.10;;
75520;SDS011;64102;48.628;9.002;2022-11-14T09:49:30;0.73;;;0.05;;
75520;SDS011;64102;48.628;9.002;2022-11-14T09:55:00;1.15;;;0.10;;
75520;SDS011;64102;48.628;9.002;2022-11-14T09:57:33;1.08;;;0.10;;
75520;SDS011;64102;48.628;9.002;2022-11-14T09:59:59;1.48;;;0.00;;
75520;SDS011;64102;48.628;9.002;2022-11-14T10:13:15;0.22;;;0.00;;
75520;SDS011;64102;48.628;9.002;2022-11-14T10:30:09;1.25;;;0.00;;
75520;SDS011;64102;48.628;9.002;2022-11-14T10:32:47;2.45;;;0.10;;
75520;SDS011;64102;48.628;9.002;2022-11-14T10:35:23;1.35;;;0.00;;
75520;SDS011;64102;48.628;9.002;2022-11-14T10:40:29;1.55;;;0.00;;
75520;SDS011;64102;48.628;9.002;2022-11-14T10:43:17;1.42;;;0.00;;
75520;SDS011;64102;48.628;9.002;2022-11-14T10:45:56;2.60;;;0.10;;
75520;SDS011;64102;48.628;9.002;2022-11-14T10:48:30;4.50;;;0.30;;
75520;SDS011;64102;48.628;9.002;2022-11-14T10:56:54;0.88;;;0.00;;
75520;SDS011;64102;48.628;9.002;2022-11-14T10:59:20;1.25;;;0.00;;
75520;SDS011;64102;48.628;9.002;2022-11-14T11:04:27;1.45;;;0.10;;
75520;SDS011;64102;48.628;9.002;2022-11-14T11:06:55;1.65;;;0.10;;
75520;SDS011;64102;48.628;9.002;2022-11-14T11:10:01;1.83;;;0.10;;
75520;SDS011;64102;48.628;9.002;2022-11-14T11:12:47;0.52;;;0.00;;
75520;SDS011;64102;48.628;9.002;2022-11-14T11:15:16;1.33;;;0.00;;
75520;SDS011;64102;48.628;9.002;2022-11-14T11:17:52;1.35;;;0.00;;
75520;SDS011;64102;48.628;9.002;2022-11-14T11:22:47;0.88;;;0.00;;
75520;SDS011;64102;48.628;9.002;2022-11-14T11:25:31;1.65;;;0.00;;
75520;SDS011;64102;48.628;9.002;2022-11-14T11:28:17;0.93;;;0.00;;
75520;SDS011;64102;48.628;9.002;2022-11-14T11:30:54;1.10;;;0.00;;
75520;SDS011;64102;48.628;9.002;2022-11-14T11:35:48;1.60;;;0.10;;
75520;SDS011;64102;48.628;9.002;2022-11-14T11:38:18;0.13;;;0.00;;
75520;SDS011;64102;48.628;9.002;2022-11-14T11:40:45;1.73;;;0.10;;
75520;SDS011;64102;48.628;9.002;2022-11-14T11:43:25;1.48;;;0.10;;
75520;SDS011;64102;48.628;9.002;2022-11-14T11:46:04;1.55;;;0.00;;
75520;SDS011;64102;48.628;9.002;2022-11-14T11:48:38;1.23;;;0.10;;
75520;SDS011;64102;48.628;9.002;2022-11-14T11:51:05;1.05;;;0.10;;
75520;SDS011;64102;48.628;9.002;2022-11-14T11:53:38;0.60;;;0.00;;
75520;SDS011;64102;48.628;9.002;2022-11-14T11:56:06;1.17;;;0.00;;
75520;SDS011;64102;48.628;9.002;2022-11-14T11:58:46;0.63;;;0.00;;
75520;SDS011;64102;48.628;9.002;2022-11-14T12:01:13;1.45;;;0.00;;
75520;SDS011;64102;48.628;9.002;2022-11-14T12:03:45;1.52;;;0.10;;
75520;SDS011;64102;48.628;9.002;2022-11-14T12:06:14;0.82;;;0.00;;
75520;SDS011;64102;48.628;9.002;2022-11-14T12:11:51;1.42;;;0.00;;
75520;SDS011;64102;48.628;9.002;2022-11-14T12:20:02;0.77;;;0.00;;
75520;SDS011;64102;48.628;9.002;2022-11-14T12:25:39;1.63;;;0.10;;
75520;SDS011;64102;48.628;9.002;2022-11-14T12:30:51;0.73;;;0.00;;
75520;SDS011;64102;48.628;9.002;2022-11-14T12:33:42;0.38;;;0.00;;
75520;SDS011;64102;48.628;9.002;2022-11-14T12:36:13;2.40;;;0.00;;
75520;SDS011;64102;48.628;9.002;2022-11-14T12:38:41;1.60;;;0.00;;
75520;SDS011;64102;48.628;9.002;2022-11-14T12:41:09;0.85;;;0.10;;
75520;SDS011;64102;48.628;9.002;2022-11-14T12:43:41;1.52;;;0.00;;
75520;SDS011;64102;48.628;9.002;2022-11-14T12:46:07;0.57;;;0.00;;
75520;SDS011;64102;48.628;9.002;2022-11-14T12:54:48;2.20;;;0.10;;
75520;SDS011;64102;48.628;9.002;2022-11-14T12:57:43;1.20;;;0.08;;
75520;SDS011;64102;48.628;9.002;2022-11-14T13:00:27;2.67;;;0.10;;
75520;SDS011;64102;48.628;9.002;2022-11-14T13:11:41;1.42;;;0.20;;
75520;SDS011;64102;48.628;9.002;2022-11-14T13:14:28;3.75;;;0.03;;
75520;SDS011;64102;48.628;9.002;2022-11-14T13:17:30;2.60;;;0.30;;
75520;SDS011;64102;48.628;9.002;2022-11-14T13:20:30;2.65;;;0.10;;
75520;SDS011;64102;48.628;9.002;2022-11-14T13:39:23;3.53;;;0.20;;
75520;SDS011;64102;48.628;9.002;2022-11-14T13:50:56;1.30;;;0.15;;
75520;SDS011;64102;48.628;9.002;2022-11-14T13:53:26;2.30;;;0.10;;
75520;SDS011;64102;48.628;9.002;2022-11-14T14:01:37;2.05;;;0.10;;
75520;SDS011;64102;48.628;9.002;2022-11-14T14:04:31;2.05;;;0.10;;
75520;SDS011;64102;48.628;9.002;2022-11-14T14:15:26;3.15;;;0.10;;
75520;SDS011;64102;48.628;9.002;2022-11-14T14:20:50;1.88;;;0.10;;
75520;SDS011;64102;48.628;9.002;2022-11-14T14:31:22;1.40;;;0.10;;
75520;SDS011;64102;48.628;9.002;2022-11-14T14:33:48;1.55;;;0.10;;
75520;SDS011;64102;48.628;9.002;2022-11-14T14:38:41;1.17;;;0.03;;
75520;SDS011;64102;48.628;9.002;2022-11-14T14:41:06;2.03;;;0.10;;
75520;SDS011;64102;48.628;9.002;2022-11-14T14:43:32;1.38;;;0.10;;
75520;SDS011;64102;48.628;9.002;2022-11-14T14:45:58;2.67;;;0.20;;
75520;SDS011;64102;48.628;9.002;2022-11-14T14:48:32;2.90;;;0.10;;
75520;SDS011;64102;48.628;9.002;2022-11-14T14:51:00;3.28;;;0.20;;
75520;SDS011;64102;48.628;9.002;2022-11-14T14:53:31;2.45;;;0.10;;
75520;SDS011;64102;48.628;9.002;2022-11-14T14:55:59;2.53;;;0.10;;
75520;SDS011;64102;48.628;9.002;2022-11-14T14:58:30;1.58;;;0.00;;
75520;SDS011;64102;48.628;9.002;2022-11-14T15:01:03;3.22;;;0.20;;
75520;SDS011;64102;48.628;9.002;2022-11-14T15:03:51;1.83;;;0.05;;
75520;SDS011;64102;48.628;9.002;2022-11-14T15:08:56;2.30;;;0.20;;
75520;SDS011;64102;48.628;9.002;2022-11-14T15:11:24;3.28;;;0.30;;
75520;SDS011;64102;48.628;9.002;2022-11-14T15:13:51;3.95;;;0.20;;
75520;SDS011;64102;48.628;9.002;2022-11-14T15:16:21;3.20;;;0.10;;
75520;SDS011;64102;48.628;9.002;2022-11-14T15:18:48;3.38;;;0.10;;
75520;SDS011;64102;48.628;9.002;2022-11-14T15:21:28;3.53;;;0.10;;
75520;SDS011;64102;48.628;9.002;2022-11-14T15:23:58;3.90;;;0.20;;
75520;SDS011;64102;48.628;9.002;2022-11-14T15:26:25;3.85;;;0.20;;
75520;SDS011;64102;48.628;9.002;2022-11-14T15:29:01;2.25;;;0.25;;
75520;SDS011;64102;48.628;9.002;2022-11-14T15:31:31;1.23;;;0.00;;
75520;SDS011;64102;48.628;9.002;2022-11-14T15:34:18;2.38;;;0.20;;
75520;SDS011;64102;48.628;9.002;2022-11-14T15:39:32;2.30;;;0.20;;
75520;SDS011;64102;48.628;9.002;2022-11-14T15:44:47;2.50;;;0.10;;
75520;SDS011;64102;48.628;9.002;2022-11-14T15:52:29;1.60;;;0.05;;
75520;SDS011;64102;48.628;9.002;2022-11-14T15:54:58;1.52;;;0.10;;
75520;SDS011;64102;48.628;9.002;2022-11-14T15:57:23;3.70;;;0.17;;
75520;SDS011;64102;48.628;9.002;2022-11-14T15:59:49;3.00;;;0.10;;
75520;SDS011;64102;48.628;9.002;2022-11-14T16:02:15;1.97;;;0.10;;
75520;SDS011;64102;48.628;9.002;2022-11-14T16:04:56;2.28;;;0.10;;
75520;SDS011;64102;48.628;9.002;2022-11-14T16:07:22;2.17;;;0.10;;
75520;SDS011;64102;48.628;9.002;2022-11-14T16:09:48;2.20;;;0.13;;
75520;SDS011;64102;48.628;9.002;2022-11-14T16:12:14;3.33;;;0.13;;
75520;SDS011;64102;48.628;9.002;2022-11-14T16:14:40;3.45;;;0.30;;
75520;SDS011;64102;48.628;9.002;2022-11-14T16:17:10;4.50;;;0.30;;
75520;SDS011;64102;48.628;9.002;2022-11-14T16:19:37;2.38;;;0.10;;
75520;SDS011;64102;48.628;9.002;2022-11-14T16:22:03;3.73;;;0.20;;
75520;SDS011;64102;48.628;9.002;2022-11-14T16:24:28;10.38;;;1.83;;
75520;SDS011;64102;48.628;9.002;2022-11-14T16:26:57;8.07;;;1.75;;
75520;SDS011;64102;48.628;9.002;2022-11-14T16:29:23;4.60;;;0.63;;
75520;SDS011;64102;48.628;9.002;2022-11-14T16:31:49;4.25;;;0.50;;
75520;SDS011;64102;48.628;9.002;2022-11-14T16:34:19;3.38;;;0.43;;
75520;SDS011;64102;48.628;9.002;2022-11-14T16:36:46;2.67;;;0.13;;
75520;SDS011;64102;48.628;9.002;2022-11-14T16:39:12;1.45;;;0.10;;
75520;SDS011;64102;48.628;9.002;2022-11-14T16:41:38;2.22;;;0.35;;
75520;SDS011;64102;48.628;9.002;2022-11-14T16:44:04;3.20;;;0.35;;
75520;SDS011;64102;48.628;9.002;2022-11-14T16:46:30;2.78;;;0.30;;
75520;SDS011;64102;48.628;9.002;2022-11-14T16:48:55;1.40;;;0.07;;
75520;SDS011;64102;48.628;9.002;2022-11-14T16:51:20;1.80;;;0.10;;
75520;SDS011;64102;48.628;9.002;2022-11-14T16:53:46;2.15;;;0.10;;
75520;SDS011;64102;48.628;9.002;2022-11-14T16:56:11;3.57;;;0.20;;
75520;SDS011;64102;48.628;9.002;2022-11-14T16:58:37;2.17;;;0.13;;
75520;SDS011;64102;48.628;9.002;2022-11-14T17:01:05;3.17;;;0.20;;
75520;SDS011;64102;48.628;9.002;2022-11-14T17:03:31;3.58;;;0.10;;
75520;SDS011;64102;48.628;9.002;2022-11-14T17:05:57;4.10;;;0.20;;
75520;SDS011;64102;48.628;9.002;2022-11-14T17:08:22;3.43;;;0.20;;
75520;SDS011;64102;48.628;9.002;2022-11-14T17:10:47;2.83;;;0.20;;
75520;SDS011;64102;48.628;9.002;2022-11-14T17:13:13;1.93;;;0.10;;
75520;SDS011;64102;48.628;9.002;2022-11-14T17:15:41;3.97;;;0.30;;
75520;SDS011;64102;48.628;9.002;2022-11-14T17:18:06;1.65;;;0.10;;
75520;SDS011;64102;48.628;9.002;2022-11-14T17:20:32;4.10;;;0.47;;
75520;SDS011;64102;48.628;9.002;2022-11-14T17:22:57;3.90;;;0.20;;